Time;durP1;ratioP1;P1;durP2;ratioP2;P2;SDS_P1;SDS_P2;PMS_P1;PMS_P2;Temp;Humidity;BMP_temperature;BMP_pressure;BME280_temperature;BME280_humidity;BME280_pressure;Samples;Min_cycle;Max_cycle;Signal;HPM_P1;HPM_P2
2022/04/08 00:01:28;;;;;;;0.10;0.10;;;;;;;;;;5004522;28;20611;-68
2022/04/08 00:03:55;;;;;;;0.10;0.10;;;;;;;;;;5013149;28;20698;-68
2022/04/08 00:06:23;;;;;;;0.10;0.10;;;;;;;;;;5012277;28;21055;-68
2022/04/08 00:08:50;;;;;;;0.10;0.10;;;;;;;;;;5008330;28;21187;-68
2022/04/08 00:11:18;;;;;;;0.10;0.10;;;;;;;;;;5014549;28;20659;-68
2022/04/08 00:13:45;;;;;;;0.10;0.10;;;;;;;;;;5003344;28;20628;-68
2022/04/08 00:16:13;;;;;;;0.10;0.10;;;;;;;;;;5014464;28;20615;-68
2022/04/08 00:18:41;;;;;;;0.10;0.10;;;;;;;;;;5009681;28;20632;-68
2022/04/08 00:21:09;;;;;;;0.10;0.10;;;;;;;;;;5019671;28;20730;-67
2022/04/08 00:23:36;;;;;;;0.10;0.10;;;;;;;;;;5016475;28;20621;-68
2022/04/08 00:26:04;;;;;;;0.10;0.10;;;;;;;;;;5007370;28;20659;-68
2022/04/08 00:28:31;;;;;;;0.10;0.10;;;;;;;;;;5012559;28;20686;-69
2022/04/08 00:30:58;;;;;;;0.10;0.10;;;;;;;;;;5006723;28;21259;-68
2022/04/08 00:33:26;;;;;;;0.10;0.10;;;;;;;;;;5013044;28;20624;-68
2022/04/08 00:35:55;;;;;;;0.10;0.10;;;;;;;;;;5007580;28;20666;-68
2022/04/08 00:38:22;;;;;;;0.00;0.00;;;;;;;;;;5009075;28;20636;-68
2022/04/08 00:40:50;;;;;;;0.10;0.10;;;;;;;;;;5007992;28;20726;-68
2022/04/08 00:43:17;;;;;;;0.10;0.10;;;;;;;;;;5010493;28;20623;-69
2022/04/08 00:45:45;;;;;;;0.10;0.10;;;;;;;;;;5011227;28;20659;-68
2022/04/08 00:48:12;;;;;;;0.10;0.10;;;;;;;;;;5012626;28;20626;-68
2022/04/08 00:50:41;;;;;;;0.10;0.10;;;;;;;;;;5017390;28;20654;-68
2022/04/08 00:53:10;;;;;;;0.00;0.00;;;;;;;;;;5007043;28;20616;-68
2022/04/08 00:55:38;;;;;;;0.10;0.10;;;;;;;;;;5012069;28;20664;-68
2022/04/08 00:58:06;;;;;;;0.10;0.10;;;;;;;;;;5024203;28;20634;-68
2022/04/08 01:00:35;;;;;;;0.10;0.10;;;;;;;;;;5007156;28;20642;-68
2022/04/08 01:03:02;;;;;;;0.10;0.10;;;;;;;;;;5012946;28;20714;-68
2022/04/08 01:05:29;;;;;;;0.10;0.10;;;;;;;;;;5014393;28;20655;-67
2022/04/08 01:07:57;;;;;;;0.10;0.10;;;;;;;;;;5013774;28;20627;-68
2022/04/08 01:10:26;;;;;;;0.10;0.10;;;;;;;;;;5002212;28;20652;-68
2022/04/08 01:12:53;;;;;;;0.10;0.10;;;;;;;;;;5006989;28;20611;-68
2022/04/08 01:15:22;;;;;;;0.10;0.10;;;;;;;;;;5009324;28;20655;-69
2022/04/08 01:17:49;;;;;;;0.10;0.10;;;;;;;;;;5002685;28;20614;-68
2022/04/08 01:20:16;;;;;;;0.10;0.10;;;;;;;;;;5001270;28;20623;-69
2022/04/08 01:22:44;;;;;;;0.10;0.10;;;;;;;;;;5000162;28;21247;-69
2022/04/08 01:25:13;;;;;;;0.10;0.10;;;;;;;;;;5025798;28;20663;-68
2022/04/08 01:27:41;;;;;;;0.10;0.10;;;;;;;;;;4999956;28;20655;-69
2022/04/08 01:30:09;;;;;;;0.10;0.10;;;;;;;;;;5008560;28;20670;-70
2022/04/08 01:32:37;;;;;;;0.10;0.10;;;;;;;;;;5010057;28;20627;-69
2022/04/08 01:35:04;;;;;;;0.10;0.10;;;;;;;;;;5006748;28;20667;-69
2022/04/08 01:37:32;;;;;;;0.10;0.10;;;;;;;;;;5007634;28;20632;-69
2022/04/08 01:39:59;;;;;;;0.10;0.10;;;;;;;;;;5008818;28;20599;-69
2022/04/08 01:42:28;;;;;;;0.10;0.10;;;;;;;;;;5015142;28;20631;-69
2022/04/08 01:44:55;;;;;;;0.10;0.10;;;;;;;;;;5002515;28;21350;-69
2022/04/08 01:47:23;;;;;;;0.10;0.10;;;;;;;;;;5010087;28;20632;-69
2022/04/08 01:49:51;;;;;;;0.10;0.10;;;;;;;;;;5012170;28;20705;-68
2022/04/08 01:52:18;;;;;;;0.10;0.10;;;;;;;;;;5003971;28;20615;-67
2022/04/08 01:54:45;;;;;;;0.10;0.10;;;;;;;;;;5009102;28;20643;-68
2022/04/08 01:57:12;;;;;;;0.10;0.10;;;;;;;;;;5015440;28;20679;-68
2022/04/08 01:59:41;;;;;;;0.10;0.10;;;;;;;;;;5006426;28;20625;-68
2022/04/08 02:02:08;;;;;;;0.10;0.10;;;;;;;;;;5008602;28;20706;-68
2022/04/08 02:04:36;;;;;;;0.10;0.10;;;7.60;99.90;;;;;;5007939;28;20639;-68
2022/04/08 02:07:06;;;;;;;0.10;0.10;;;6.40;99.90;;;;;;5011176;28;20664;-68
2022/04/08 02:09:34;;;;;;;0.10;0.10;;;6.30;99.90;;;;;;5004155;28;20627;-68
2022/04/08 02:12:01;;;;;;;0.10;0.10;;;6.30;99.90;;;;;;5005835;28;20618;-68
2022/04/08 02:14:28;;;;;;;0.10;0.10;;;6.30;99.90;;;;;;5007790;28;20650;-69
2022/04/08 02:16:57;;;;;;;0.10;0.10;;;6.30;99.90;;;;;;5011558;28;20713;-69
2022/04/08 02:19:23;;;;;;;0.10;0.10;;;6.30;99.90;;;;;;5009594;28;21249;-69
2022/04/08 02:21:51;;;;;;;0.10;0.10;;;6.30;99.90;;;;;;5000947;28;20624;-68
2022/04/08 02:24:18;;;;;;;0.10;0.10;;;6.30;99.90;;;;;;5002555;28;20697;-67
2022/04/08 02:26:45;;;;;;;0.10;0.10;;;6.30;99.90;;;;;;5005653;28;20613;-68
2022/04/08 02:29:13;;;;;;;0.10;0.10;;;6.30;99.90;;;;;;5001906;28;21046;-68
2022/04/08 02:31:39;;;;;;;0.10;0.10;;;6.30;99.90;;;;;;5009421;28;20673;-68
2022/04/08 02:34:08;;;;;;;0.10;0.10;;;6.30;99.90;;;;;;5004594;28;20674;-68
2022/04/08 02:36:35;;;;;;;0.10;0.10;;;6.30;99.90;;;;;;5002802;28;20624;-68
2022/04/08 02:39:02;;;;;;;0.10;0.10;;;6.30;99.90;;;;;;5000656;28;20732;-68
2022/04/08 02:41:29;;;;;;;0.10;0.10;;;6.20;99.90;;;;;;5003015;28;20616;-68
2022/04/08 02:43:55;;;;;;;0.20;0.20;;;6.30;99.90;;;;;;5023024;28;20746;-67
2022/04/08 02:46:22;;;;;;;0.10;0.10;;;6.30;99.90;;;;;;5017353;28;20623;-68
2022/04/08 02:48:50;;;;;;;0.10;0.10;;;6.30;99.90;;;;;;5005538;28;20678;-68
2022/04/08 02:51:18;;;;;;;0.10;0.10;;;6.30;99.90;;;;;;5007527;28;20664;-68
2022/04/08 02:53:45;;;;;;;0.10;0.10;;;6.30;99.90;;;;;;5006170;28;20599;-68
2022/04/08 02:56:12;;;;;;;0.10;0.10;;;6.40;99.90;;;;;;5010778;28;20662;-67
2022/04/08 02:58:39;;;;;;;0.10;0.10;;;6.40;99.90;;;;;;5024424;28;20621;-68
2022/04/08 03:01:06;;;;;;;0.13;0.13;;;6.40;99.90;;;;;;5010031;28;20633;-67
2022/04/08 03:03:33;;;;;;;0.10;0.10;;;6.50;99.90;;;;;;5009785;28;20658;-68
2022/04/08 03:06:00;;;;;;;0.10;0.10;;;6.50;99.90;;;;;;5012975;28;20662;-67
2022/04/08 03:08:30;;;;;;;0.10;0.10;;;6.50;99.90;;;;;;5014888;28;20673;-68
2022/04/08 03:10:57;;;;;;;0.10;0.10;;;6.50;99.90;;;;;;5012945;28;21265;-68
2022/04/08 03:13:25;;;;;;;0.10;0.10;;;6.50;99.90;;;;;;5015771;28;20714;-68
2022/04/08 03:15:52;;;;;;;0.10;0.10;;;6.40;99.90;;;;;;5007901;28;20673;-68
2022/04/08 03:18:19;;;;;;;0.10;0.10;;;6.40;99.90;;;;;;5007999;28;20642;-68
2022/04/08 03:20:46;;;;;;;0.10;0.10;;;6.40;99.90;;;;;;5017496;28;20669;-68
2022/04/08 03:23:13;;;;;;;0.10;0.10;;;6.40;99.90;;;;;;5009980;28;20681;-67
2022/04/08 03:25:42;;;;;;;0.10;0.10;;;6.40;99.90;;;;;;5014113;28;20769;-68
2022/04/08 03:28:09;;;;;;;0.10;0.10;;;6.40;99.90;;;;;;5019419;28;20605;-68
2022/04/08 03:30:37;;;;;;;0.10;0.10;;;6.40;99.90;;;;;;5011666;28;20657;-68
2022/04/08 03:33:03;;;;;;;0.10;0.10;;;6.40;99.90;;;;;;5008976;28;20607;-68
2022/04/08 03:35:31;;;;;;;0.10;0.10;;;6.30;99.90;;;;;;5008857;28;21242;-68
2022/04/08 03:37:57;;;;;;;0.10;0.10;;;6.30;99.90;;;;;;5016406;28;20673;-68
2022/04/08 03:40:24;;;;;;;0.10;0.10;;;6.30;99.90;;;;;;5009167;28;20614;-68
2022/04/08 03:42:53;;;;;;;0.10;0.10;;;;;;;;;;5019010;28;20626;-68
2022/04/08 03:45:20;;;;;;;0.10;0.10;;;;;;;;;;5012549;28;20659;-68
2022/04/08 03:47:49;;;;;;;0.10;0.10;;;;;;;;;;5018493;28;20640;-68
2022/04/08 03:50:16;;;;;;;0.10;0.10;;;;;;;;;;5007183;28;20624;-68
2022/04/08 03:52:43;;;;;;;0.10;0.10;;;;;;;;;;5009604;28;20651;-68
2022/04/08 03:55:11;;;;;;;0.10;0.10;;;;;;;;;;5009769;28;20679;-68
2022/04/08 03:57:38;;;;;;;0.10;0.10;;;;;;;;;;5020688;28;20700;-67
2022/04/08 04:00:08;;;;;;;0.10;0.10;;;;;;;;;;5011436;28;20627;-67
2022/04/08 04:02:36;;;;;;;0.10;0.10;;;;;;;;;;5005871;28;20618;-68
2022/04/08 04:05:04;;;;;;;0.10;0.10;;;;;;;;;;4998509;28;20767;-68
2022/04/08 04:07:33;;;;;;;0.10;0.10;;;;;;;;;;5011716;28;20615;-68
2022/04/08 04:10:01;;;;;;;0.10;0.10;;;;;;;;;;5014435;28;20621;-68
2022/04/08 04:12:28;;;;;;;0.10;0.10;;;;;;;;;;5007713;28;20651;-68
2022/04/08 04:14:55;;;;;;;0.10;0.10;;;;;;;;;;5010819;28;20639;-68
2022/04/08 04:17:27;;;;;;;0.10;0.10;;;;;;;;;;5005946;28;20627;-68
2022/04/08 04:19:54;;;;;;;0.20;0.20;;;;;;;;;;5017427;28;20703;-68
2022/04/08 04:22:22;;;;;;;0.10;0.10;;;;;;;;;;5010451;28;20642;-69
2022/04/08 04:24:49;;;;;;;0.10;0.10;;;;;;;;;;5012067;28;20677;-68
2022/04/08 04:27:16;;;;;;;0.10;0.10;;;;;;;;;;5027674;28;21204;-68
2022/04/08 04:29:43;;;;;;;0.10;0.10;;;;;;;;;;5006202;28;20635;-68
2022/04/08 04:32:11;;;;;;;0.10;0.10;;;;;;;;;;5005870;28;20655;-68
2022/04/08 04:34:39;;;;;;;0.10;0.10;;;;;;;;;;5001586;28;20764;-67
2022/04/08 04:37:08;;;;;;;0.10;0.10;;;;;;;;;;5011225;28;20753;-69
2022/04/08 04:39:36;;;;;;;0.10;0.10;;;;;;;;;;5007187;28;20630;-69
2022/04/08 04:42:03;;;;;;;0.10;0.10;;;;;;;;;;5015381;28;20607;-69
2022/04/08 04:44:31;;;;;;;0.10;0.10;;;;;;;;;;5020567;28;20635;-69
2022/04/08 04:46:58;;;;;;;0.10;0.10;;;;;;;;;;5011029;28;20632;-68
2022/04/08 04:49:26;;;;;;;0.10;0.10;;;;;;;;;;5026571;28;20617;-69
2022/04/08 04:51:55;;;;;;;0.10;0.10;;;;;;;;;;5009942;28;21009;-68
2022/04/08 04:54:22;;;;;;;0.10;0.10;;;;;;;;;;5009364;28;20667;-68
2022/04/08 04:56:49;;;;;;;0.10;0.10;;;;;;;;;;5006711;28;20623;-68
2022/04/08 04:59:16;;;;;;;0.10;0.10;;;;;;;;;;5009251;28;20654;-69
2022/04/08 05:01:43;;;;;;;0.10;0.10;;;;;;;;;;5002414;28;20628;-69
2022/04/08 05:04:10;;;;;;;0.10;0.10;;;;;;;;;;5009708;28;20639;-69
2022/04/08 05:06:38;;;;;;;0.10;0.10;;;;;;;;;;4993784;28;20733;-68
2022/04/08 05:09:06;;;;;;;0.10;0.10;;;;;;;;;;5003157;28;20638;-68
2022/04/08 05:11:33;;;;;;;0.13;0.13;;;;;;;;;;5013968;28;20658;-69
2022/04/08 05:14:01;;;;;;;0.10;0.10;;;;;;;;;;5006446;28;20671;-69
2022/04/08 05:16:29;;;;;;;0.10;0.10;;;;;;;;;;5004191;28;20619;-69
2022/04/08 05:18:56;;;;;;;0.10;0.10;;;;;;;;;;5002062;28;20614;-69
2022/04/08 05:21:23;;;;;;;0.10;0.10;;;;;;;;;;5007033;28;20611;-68
2022/04/08 05:23:50;;;;;;;0.10;0.10;;;;;;;;;;5008620;28;20656;-69
2022/04/08 05:26:19;;;;;;;0.10;0.10;;;;;;;;;;5005009;28;20631;-68
2022/04/08 05:28:46;;;;;;;0.10;0.10;;;;;;;;;;5001284;28;20619;-68
2022/04/08 05:31:13;;;;;;;0.10;0.10;;;;;;;;;;5010962;28;20700;-68
2022/04/08 05:33:41;;;;;;;0.10;0.10;;;;;;;;;;5013350;28;20736;-69
2022/04/08 05:36:08;;;;;;;0.10;0.10;;;;;;;;;;5011911;28;20627;-68
2022/04/08 05:38:35;;;;;;;0.10;0.10;;;;;;;;;;5006905;28;20626;-68
2022/04/08 05:41:03;;;;;;;0.10;0.10;;;;;;;;;;5005872;28;20607;-68
2022/04/08 05:43:32;;;;;;;0.10;0.10;;;;;;;;;;5005077;28;20611;-67
2022/04/08 05:45:59;;;;;;;0.10;0.10;;;;;;;;;;5001160;28;20636;-66
2022/04/08 05:48:27;;;;;;;0.10;0.10;;;;;;;;;;5029515;28;20630;-68
2022/04/08 05:50:54;;;;;;;0.10;0.10;;;;;;;;;;5010823;28;20624;-67
2022/04/08 05:53:22;;;;;;;0.10;0.10;;;;;;;;;;5005100;28;20648;-67
2022/04/08 05:55:49;;;;;;;0.10;0.10;;;;;;;;;;5002822;28;20766;-67
2022/04/08 05:58:16;;;;;;;0.10;0.10;;;;;;;;;;5008841;28;20631;-67
2022/04/08 06:00:46;;;;;;;0.10;0.10;;;;;;;;;;5007039;28;20708;-69
2022/04/08 06:03:13;;;;;;;0.10;0.10;;;;;;;;;;5002808;28;20647;-69
2022/04/08 06:05:41;;;;;;;0.10;0.10;;;;;;;;;;5007293;28;20755;-68
2022/04/08 06:08:08;;;;;;;0.10;0.10;;;;;;;;;;5005318;28;20635;-69
2022/04/08 06:10:36;;;;;;;0.10;0.10;;;;;;;;;;5013347;28;20626;-68
2022/04/08 06:13:03;;;;;;;0.10;0.10;;;;;;;;;;5005150;28;20663;-69
2022/04/08 06:15:31;;;;;;;0.10;0.10;;;;;;;;;;5015926;28;20655;-69
2022/04/08 06:18:00;;;;;;;0.10;0.10;;;6.20;99.90;;;;;;5006366;28;20608;-69
2022/04/08 06:20:27;;;;;;;0.13;0.13;;;;;;;;;;5021814;28;20626;-68
2022/04/08 06:22:55;;;;;;;0.10;0.10;;;;;;;;;;5027978;28;20625;-68
2022/04/08 06:25:23;;;;;;;0.10;0.10;;;;;;;;;;5008707;28;21327;-69
2022/04/08 06:27:57;;;;;;;0.10;0.10;;;;;;;;;;5004593;28;20628;-68
2022/04/08 06:30:24;;;;;;;0.10;0.10;;;;;;;;;;5009464;28;20628;-68
2022/04/08 06:32:51;;;;;;;0.20;0.20;;;;;;;;;;5006592;28;20676;-69
2022/04/08 06:35:20;;;;;;;0.17;0.17;;;;;;;;;;5004813;28;20721;-68
2022/04/08 06:37:47;;;;;;;0.10;0.10;;;;;;;;;;5007555;28;20643;-68
2022/04/08 06:40:14;;;;;;;0.10;0.10;;;;;;;;;;5002740;28;20653;-70
2022/04/08 06:42:42;;;;;;;0.13;0.13;;;;;;;;;;5007764;28;20620;-71
2022/04/08 06:45:10;;;;;;;0.10;0.10;;;;;;;;;;5009682;28;20639;-68
2022/04/08 06:47:48;;;;;;;0.10;0.10;;;;;;;;;;5005996;28;20712;-69
2022/04/08 06:50:15;;;;;;;0.10;0.10;;;;;;;;;;5003590;28;20744;-67
2022/04/08 06:52:44;;;;;;;0.10;0.10;;;;;;;;;;5001518;28;20664;-69
2022/04/08 06:55:11;;;;;;;0.10;0.10;;;;;;;;;;5003153;28;20742;-68
2022/04/08 06:57:38;;;;;;;0.10;0.10;;;;;;;;;;5013557;28;20632;-69
2022/04/08 07:00:06;;;;;;;0.10;0.10;;;;;;;;;;4994532;28;20663;-69
2022/04/08 07:02:34;;;;;;;0.10;0.10;;;;;;;;;;5011772;28;21210;-68
2022/04/08 07:05:02;;;;;;;0.10;0.10;;;;;;;;;;5006930;28;20718;-66
2022/04/08 07:07:29;;;;;;;0.20;0.20;;;;;;;;;;5005779;28;20726;-67
2022/04/08 07:09:58;;;;;;;0.10;0.10;;;;;;;;;;5011015;28;20618;-68
2022/04/08 07:12:25;;;;;;;0.10;0.10;;;;;;;;;;5004787;28;21233;-69
2022/04/08 07:14:53;;;;;;;0.10;0.10;;;;;;;;;;5024187;28;20663;-68
2022/04/08 07:17:26;;;;;;;0.10;0.10;;;;;;;;;;5003528;28;20627;-67
2022/04/08 07:19:54;;;;;;;0.10;0.10;;;;;;;;;;5009791;28;20626;-69
2022/04/08 07:22:21;;;;;;;0.10;0.10;;;;;;;;;;5013583;28;20614;-68
2022/04/08 07:24:48;;;;;;;0.10;0.10;;;;;;;;;;5007664;28;20695;-68
2022/04/08 07:27:17;;;;;;;0.10;0.10;;;;;;;;;;5005251;28;20701;-67
2022/04/08 07:29:44;;;;;;;0.10;0.10;;;;;;;;;;5008421;28;20637;-68
2022/04/08 07:32:11;;;;;;;0.10;0.10;;;;;;;;;;5004007;28;20657;-68
2022/04/08 07:34:40;;;;;;;0.10;0.10;;;;;;;;;;4998064;28;20678;-68
2022/04/08 07:37:08;;;;;;;0.10;0.10;;;;;;;;;;5000376;28;20647;-67
2022/04/08 07:39:41;;;;;;;0.10;0.10;;;;;;;;;;5010075;28;21236;-67
2022/04/08 07:42:08;;;;;;;0.10;0.10;;;;;;;;;;5008952;28;20635;-68
2022/04/08 07:44:38;;;;;;;0.10;0.10;;;;;;;;;;5013849;28;20633;-67
2022/04/08 07:47:06;;;;;;;0.10;0.10;;;;;;;;;;5006767;28;20728;-69
2022/04/08 07:49:33;;;;;;;0.10;0.10;;;;;;;;;;5009998;28;20629;-68
2022/04/08 07:52:01;;;;;;;0.10;0.10;;;;;;;;;;5015079;28;21040;-68
2022/04/08 07:54:28;;;;;;;0.00;0.00;;;;;;;;;;5006801;28;20711;-69
2022/04/08 07:56:55;;;;;;;0.10;0.10;;;;;;;;;;5005632;28;20627;-69
2022/04/08 07:59:22;;;;;;;0.10;0.10;;;;;;;;;;5013627;28;20661;-68
2022/04/08 08:01:51;;;;;;;0.10;0.10;;;;;;;;;;5007081;28;20628;-68
2022/04/08 08:04:18;;;;;;;0.10;0.10;;;;;;;;;;5008495;28;20655;-67
2022/04/08 08:06:46;;;;;;;0.10;0.10;;;;;;;;;;5010162;28;20606;-68
2022/04/08 08:09:13;;;;;;;0.10;0.10;;;;;;;;;;5011663;28;20627;-69
2022/04/08 08:11:41;;;;;;;0.10;0.10;;;;;;;;;;5009241;28;20607;-68
2022/04/08 08:14:08;;;;;;;0.10;0.10;;;;;;;;;;5007979;28;20647;-69
2022/04/08 08:16:35;;;;;;;0.10;0.10;;;;;;;;;;5019418;28;20621;-70
2022/04/08 08:19:04;;;;;;;0.10;0.10;;;;;;;;;;5016307;28;20645;-70
2022/04/08 08:21:31;;;;;;;0.10;0.10;;;;;;;;;;5015361;28;20635;-69
2022/04/08 08:23:59;;;;;;;0.10;0.10;;;;;;;;;;5014823;28;20662;-69
2022/04/08 08:26:26;;;;;;;0.20;0.20;;;;;;;;;;5009260;28;20604;-68
2022/04/08 08:28:53;;;;;;;0.10;0.10;;;;;;;;;;5014243;28;20642;-69
2022/04/08 08:31:21;;;;;;;0.10;0.10;;;;;;;;;;5007537;28;20653;-68
2022/04/08 08:33:49;;;;;;;0.00;0.00;;;;;;;;;;5007979;28;20663;-68
2022/04/08 08:36:17;;;;;;;0.10;0.10;;;;;;;;;;5011191;28;20615;-68
2022/04/08 08:38:45;;;;;;;0.10;0.10;;;;;;;;;;5004723;28;20620;-68
2022/04/08 08:41:12;;;;;;;0.10;0.10;;;;;;;;;;5010596;28;20627;-68
2022/04/08 08:43:39;;;;;;;0.10;0.10;;;;;;;;;;5015923;28;20680;-68
2022/04/08 08:46:07;;;;;;;0.10;0.10;;;;;;;;;;5020116;28;20665;-69
2022/04/08 08:48:35;;;;;;;0.10;0.10;;;;;;;;;;5008641;28;20709;-68
2022/04/08 08:51:03;;;;;;;0.10;0.10;;;;;;;;;;5017589;28;20627;-69
2022/04/08 08:53:32;;;;;;;0.10;0.10;;;;;;;;;;5005571;28;20666;-69
2022/04/08 08:55:59;;;;;;;0.10;0.10;;;;;;;;;;5013600;28;20625;-69
2022/04/08 08:58:27;;;;;;;0.10;0.10;;;;;;;;;;5005496;28;20719;-69
2022/04/08 09:00:54;;;;;;;0.10;0.10;;;;;;;;;;5006958;28;20218;-67
2022/04/08 09:03:21;;;;;;;0.10;0.10;;;;;;;;;;5009942;28;20656;-68
2022/04/08 09:05:52;;;;;;;0.10;0.10;;;;;;;;;;5002310;28;20660;-69
2022/04/08 09:08:19;;;;;;;0.10;0.10;;;;;;;;;;5012547;28;20646;-67
2022/04/08 09:10:49;;;;;;;0.00;0.00;;;;;;;;;;5016678;28;20622;-68
2022/04/08 09:13:20;;;;;;;0.10;0.10;;;;;;;;;;5013765;28;20234;-68
2022/04/08 09:15:53;;;;;;;0.10;0.10;;;;;;;;;;5009621;28;20217;-68
2022/04/08 09:18:21;;;;;;;0.10;0.10;;;;;;;;;;5013803;28;20643;-68
2022/04/08 09:20:49;;;;;;;0.10;0.10;;;;;;;;;;5008565;28;20239;-68
2022/04/08 09:23:18;;;;;;;0.10;0.10;;;;;;;;;;5013778;28;20255;-68
2022/04/08 09:25:46;;;;;;;0.00;0.00;;;;;;;;;;5009693;28;20643;-68
2022/04/08 09:28:16;;;;;;;0.10;0.10;;;;;;;;;;5009512;28;20216;-68
2022/04/08 09:30:48;;;;;;;0.10;0.10;;;;;;;;;;5011361;28;20200;-68
2022/04/08 09:33:17;;;;;;;0.10;0.10;;;;;;;;;;5013838;28;20319;-68
2022/04/08 09:35:44;;;;;;;0.10;0.10;;;;;;;;;;5005309;28;20671;-68
2022/04/08 09:38:11;;;;;;;0.10;0.10;;;;;;;;;;5002912;28;20201;-68
2022/04/08 09:40:40;;;;;;;0.10;0.10;;;;;;;;;;5014545;28;20192;-67
2022/04/08 09:43:09;;;;;;;0.10;0.10;;;;;;;;;;5007863;28;20218;-67
2022/04/08 09:46:13;;;;;;;0.10;0.10;;;;;;;;;;5005690;28;20223;-68
2022/04/08 09:48:41;;;;;;;0.10;0.10;;;;;;;;;;5019153;28;20215;-68
2022/04/08 09:51:09;;;;;;;0.10;0.10;;;;;;;;;;5006081;28;20748;-68
2022/04/08 09:53:37;;;;;;;0.10;0.10;;;;;;;;;;5006122;28;20271;-68
2022/04/08 09:56:09;;;;;;;0.10;0.10;;;;;;;;;;5007082;28;20248;-69
2022/04/08 09:58:38;;;;;;;0.10;0.10;;;;;;;;;;5004234;28;20211;-69
2022/04/08 10:01:06;;;;;;;0.10;0.10;;;;;;;;;;5000890;28;20205;-69
2022/04/08 10:03:35;;;;;;;0.10;0.10;;;;;;;;;;5014546;28;20294;-69
2022/04/08 10:06:02;;;;;;;0.00;0.00;;;;;;;;;;5006398;28;20223;-68
2022/04/08 10:08:33;;;;;;;0.10;0.10;;;;;;;;;;5010752;28;20266;-68
2022/04/08 10:11:06;;;;;;;0.10;0.10;;;;;;;;;;5012725;28;20212;-69
2022/04/08 10:13:44;;;;;;;0.10;0.10;;;;;;;;;;5023947;28;20315;-67
2022/04/08 10:16:15;;;;;;;0.10;0.10;;;;;;;;;;5011504;28;20211;-68
2022/04/08 10:18:44;;;;;;;0.10;0.10;;;;;;;;;;5018481;28;20215;-68
2022/04/08 10:21:12;;;;;;;0.10;0.10;;;;;;;;;;5004239;28;20196;-68
2022/04/08 10:23:39;;;;;;;0.10;0.10;;;;;;;;;;4999571;28;20193;-68
2022/04/08 10:26:08;;;;;;;0.10;0.10;;;;;;;;;;5005781;28;20211;-69
2022/04/08 10:28:36;;;;;;;0.10;0.10;;;;;;;;;;5006348;28;20204;-69
2022/04/08 10:31:14;;;;;;;0.10;0.10;;;;;;;;;;5002083;28;20212;-68
2022/04/08 10:33:48;;;;;;;0.10;0.10;;;;;;;;;;5023496;28;21141;-68
2022/04/08 10:36:15;;;;;;;0.10;0.10;;;;;;;;;;5005080;28;20424;-67
2022/04/08 10:38:42;;;;;;;0.10;0.10;;;;;;;;;;5004360;28;20196;-67
2022/04/08 10:41:11;;;;;;;0.10;0.10;;;;;;;;;;5005054;28;20230;-68
2022/04/08 10:43:45;;;;;;;0.10;0.10;;;;;;;;;;5015645;28;20206;-68
2022/04/08 10:46:12;;;;;;;0.10;0.10;;;;;;;;;;5013439;28;20212;-69
2022/04/08 10:48:40;;;;;;;0.10;0.10;;;;;;;;;;5014653;28;20200;-69
2022/04/08 10:51:11;;;;;;;0.10;0.10;;;;;;;;;;5007248;28;20284;-68
2022/04/08 10:53:41;;;;;;;0.10;0.10;;;;;;;;;;4999810;28;20286;-68
2022/04/08 10:56:10;;;;;;;0.00;0.00;;;;;;;;;;5010117;28;20220;-68
2022/04/08 10:58:41;;;;;;;0.10;0.10;;;;;;;;;;5005638;28;20196;-69
2022/04/08 11:01:14;;;;;;;0.10;0.10;;;;;;;;;;5002281;28;20282;-69
2022/04/08 11:03:45;;;;;;;0.10;0.10;;;;;;;;;;5005010;28;20277;-69
2022/04/08 11:06:17;;;;;;;0.10;0.10;;;;;;;;;;5009843;28;20197;-70
2022/04/08 11:08:45;;;;;;;0.10;0.10;;;;;;;;;;5006329;28;20234;-67
2022/04/08 11:11:13;;;;;;;0.10;0.10;;;;;;;;;;5011674;28;20265;-69
2022/04/08 11:13:41;;;;;;;0.10;0.10;;;;;;;;;;5010663;28;20242;-69
2022/04/08 11:16:09;;;;;;;0.10;0.10;;;;;;;;;;5009354;28;20211;-68
2022/04/08 11:18:37;;;;;;;0.00;0.00;;;;;;;;;;5011441;28;20205;-69
2022/04/08 11:21:04;;;;;;;0.10;0.10;;;;;;;;;;5007608;28;20196;-69
2022/04/08 11:23:33;;;;;;;0.10;0.10;;;;;;;;;;5018452;28;20212;-69
2022/04/08 11:26:01;;;;;;;0.10;0.10;;;;;;;;;;5014156;28;20201;-69
2022/04/08 11:28:28;;;;;;;0.00;0.00;;;;;;;;;;5023855;28;20213;-69
2022/04/08 11:30:56;;;;;;;0.10;0.10;;;;;;;;;;5015036;28;20204;-69
2022/04/08 11:33:23;;;;;;;0.10;0.10;;;;;;;;;;5014966;28;20259;-69
2022/04/08 11:35:56;;;;;;;0.10;0.10;;;;;;;;;;5008972;28;20225;-69
2022/04/08 11:38:23;;;;;;;0.10;0.10;;;;;;;;;;5010646;28;20213;-68
2022/04/08 11:40:51;;;;;;;0.10;0.10;;;;;;;;;;5018725;28;20387;-68
2022/04/08 11:43:19;;;;;;;0.10;0.10;;;;;;;;;;5013791;28;20247;-67
2022/04/08 11:45:48;;;;;;;0.10;0.10;;;;;;;;;;5006225;28;20260;-68
2022/04/08 11:48:16;;;;;;;0.10;0.10;;;;;;;;;;5012554;28;20211;-70
2022/04/08 11:50:44;;;;;;;0.10;0.10;;;;;;;;;;5013683;28;20203;-69
2022/04/08 11:53:15;;;;;;;0.10;0.10;;;;;;;;;;5006211;28;20213;-69
2022/04/08 11:55:54;;;;;;;0.10;0.10;;;;;;;;;;5003506;28;20286;-69
2022/04/08 11:58:21;;;;;;;0.00;0.00;;;;;;;;;;5005228;28;20201;-67
2022/04/08 12:00:50;;;;;;;0.10;0.10;;;;;;;;;;5000107;28;20288;-69
2022/04/08 12:03:22;;;;;;;0.10;0.10;;;;;;;;;;5002157;28;20244;-69
2022/04/08 12:05:51;;;;;;;0.10;0.10;;;;;;;;;;4998246;28;20271;-69
2022/04/08 12:08:19;;;;;;;0.10;0.10;;;;;;;;;;5011495;28;20217;-69
2022/04/08 12:10:47;;;;;;;0.10;0.10;;;;;;;;;;5013660;28;20203;-69
2022/04/08 12:13:17;;;;;;;0.10;0.10;;;;;;;;;;5011872;28;20299;-69
2022/04/08 12:15:44;;;;;;;0.10;0.10;;;;;;;;;;5008986;28;20689;-69
2022/04/08 12:18:12;;;;;;;0.10;0.10;;;;;;;;;;5001472;28;20621;-69
2022/04/08 12:20:40;;;;;;;0.10;0.10;;;;;;;;;;4998275;28;20204;-68
2022/04/08 12:23:09;;;;;;;0.00;0.00;;;;;;;;;;5001474;28;20200;-70
2022/04/08 12:25:37;;;;;;;0.10;0.10;;;;;;;;;;4999416;28;20801;-69
2022/04/08 12:28:10;;;;;;;0.10;0.10;;;;;;;;;;5002848;28;20208;-69
2022/04/08 12:30:39;;;;;;;0.10;0.10;;;;;;;;;;5004777;28;20666;-68
2022/04/08 12:33:07;;;;;;;0.00;0.00;;;;;;;;;;5009113;28;20306;-68
2022/04/08 12:35:34;;;;;;;0.10;0.10;;;;;;;;;;5004617;28;20231;-68
2022/04/08 12:38:04;;;;;;;0.10;0.10;;;;;;;;;;5004548;28;20208;-69
2022/04/08 12:40:31;;;;;;;0.10;0.10;;;;;;;;;;5000195;28;20221;-69
2022/04/08 12:43:00;;;;;;;0.10;0.10;;;;;;;;;;5005763;28;20215;-68
2022/04/08 12:45:28;;;;;;;0.10;0.10;;;;;;;;;;5010306;28;20212;-69
2022/04/08 12:47:57;;;;;;;0.10;0.10;;;;;;;;;;5021538;28;20217;-69
2022/04/08 12:50:25;;;;;;;0.10;0.10;;;;;;;;;;5021423;28;20224;-68
2022/04/08 12:52:52;;;;;;;0.00;0.00;;;;;;;;;;5006419;28;20296;-66
2022/04/08 12:55:19;;;;;;;0.10;0.10;;;;;;;;;;5003252;28;20216;-68
2022/04/08 12:57:48;;;;;;;0.10;0.10;;;;;;;;;;5006680;28;20208;-68
2022/04/08 13:00:16;;;;;;;0.10;0.10;;;;;;;;;;5015449;28;20216;-69
2022/04/08 13:02:45;;;;;;;0.10;0.10;;;;;;;;;;5007238;28;20204;-68
2022/04/08 13:05:14;;;;;;;0.10;0.10;;;;;;;;;;5007043;28;20212;-67
2022/04/08 13:07:41;;;;;;;0.10;0.10;;;;;;;;;;5007541;28;20269;-70
2022/04/08 13:10:10;;;;;;;0.10;0.10;;;;;;;;;;5011366;28;20199;-69
2022/04/08 13:12:37;;;;;;;0.10;0.10;;;;;;;;;;5012890;28;20607;-68
2022/04/08 13:15:05;;;;;;;0.00;0.00;;;;;;;;;;5008547;28;20279;-68
2022/04/08 13:17:33;;;;;;;0.00;0.00;;;;;;;;;;5014260;28;20200;-68
2022/04/08 13:20:00;;;;;;;0.10;0.10;;;;;;;;;;5005045;28;20204;-69
2022/04/08 13:22:29;;;;;;;0.10;0.10;;;;;;;;;;5010772;28;20208;-68
2022/04/08 13:24:57;;;;;;;0.07;0.07;;;;;;;;;;5008170;28;20272;-69
2022/04/08 13:27:24;;;;;;;0.10;0.10;;;;;;;;;;5003019;28;20228;-69
2022/04/08 13:29:53;;;;;;;0.10;0.10;;;;;;;;;;5005634;28;20224;-68
2022/04/08 13:32:22;;;;;;;0.10;0.10;;;;;;;;;;5003461;28;20205;-68
2022/04/08 13:34:49;;;;;;;0.00;0.00;;;;;;;;;;5001576;28;20303;-69
2022/04/08 13:37:17;;;;;;;0.00;0.00;;;;;;;;;;5004285;28;20715;-68
2022/04/08 13:39:45;;;;;;;0.10;0.10;;;;;;;;;;5006856;28;20282;-66
2022/04/08 13:42:13;;;;;;;0.10;0.10;;;;;;;;;;5011582;28;20238;-68
2022/04/08 13:44:40;;;;;;;0.10;0.10;;;;;;;;;;5010927;28;20266;-66
2022/04/08 13:47:07;;;;;;;0.00;0.00;;;;;;;;;;5011145;28;20204;-68
2022/04/08 13:49:34;;;;;;;0.10;0.10;;;;;;;;;;5006200;28;20255;-67
2022/04/08 13:52:02;;;;;;;0.10;0.10;;;;;;;;;;5010427;28;20216;-68
2022/04/08 13:54:29;;;;;;;0.10;0.10;;;;;;;;;;5003855;28;20250;-68
2022/04/08 13:56:58;;;;;;;0.00;0.00;;;;;;;;;;5011761;28;20201;-68
2022/04/08 13:59:25;;;;;;;0.10;0.10;;;;;;;;;;5005028;28;20200;-68
2022/04/08 14:01:53;;;;;;;0.10;0.10;;;;;;;;;;5012398;28;20211;-68
2022/04/08 14:04:21;;;;;;;0.10;0.10;;;;;;;;;;5007957;28;20291;-67
2022/04/08 14:06:48;;;;;;;0.10;0.10;;;;;;;;;;5008690;28;20215;-68
2022/04/08 14:09:15;;;;;;;0.10;0.10;;;;;;;;;;5008746;28;20196;-68
2022/04/08 14:11:43;;;;;;;0.10;0.10;;;;;;;;;;5009561;28;20226;-69
2022/04/08 14:14:12;;;;;;;0.10;0.10;;;;;;;;;;5008605;28;20231;-67
2022/04/08 14:16:39;;;;;;;0.10;0.10;;;;;;;;;;5004778;28;20196;-67
2022/04/08 14:19:07;;;;;;;0.10;0.10;;;;;;;;;;5003427;28;20283;-68
2022/04/08 14:21:35;;;;;;;0.10;0.10;;;;;;;;;;5005721;28;20246;-68
2022/04/08 14:24:02;;;;;;;0.00;0.00;;;;;;;;;;5004756;28;20267;-66
2022/04/08 14:26:30;;;;;;;0.10;0.10;;;;;;;;;;5004212;28;20200;-67
2022/04/08 14:28:57;;;;;;;0.00;0.00;;;;;;;;;;5001424;28;20299;-68
2022/04/08 14:31:25;;;;;;;0.10;0.10;;;;;;;;;;5003653;28;20535;-67
2022/04/08 14:33:52;;;;;;;0.07;0.07;;;;;;;;;;5004352;28;20225;-67